createdAt,value
2022-09-01T00:00:11.994Z,70.15
2022-09-01T00:01:12.007Z,69.27
2022-09-01T00:02:12.041Z,68.87
2022-09-01T00:03:11.971Z,69.10
2022-09-01T00:04:11.995Z,69.31
2022-09-01T00:05:12.002Z,70.36
2022-09-01T00:06:11.963Z,70.36
2022-09-01T00:07:11.967Z,70.12
2022-09-01T00:08:12.018Z,69.98
2022-09-01T00:09:12.967Z,68.90
2022-09-01T00:10:12.036Z,69.10
2022-09-01T00:11:11.943Z,68.60
2022-09-01T00:12:11.974Z,68.26
2022-09-01T00:13:11.940Z,68.26
2022-09-01T00:14:30.896Z,68.80
2022-09-01T00:15:12.898Z,68.70
2022-09-01T00:16:11.994Z,69.78
2022-09-01T00:17:11.906Z,70.89
2022-09-01T00:18:11.940Z,71.00
2022-09-01T00:19:11.870Z,70.83
2022-09-01T00:20:11.884Z,71.33
2022-09-01T00:21:11.862Z,71.53
2022-09-01T00:22:11.889Z,71.13
2022-09-01T00:23:11.851Z,71.57
2022-09-01T00:24:11.910Z,71.97
2022-09-01T00:25:11.831Z,72.48
2022-09-01T00:26:11.844Z,72.52
2022-09-01T00:27:11.826Z,72.96
2022-09-01T00:28:11.869Z,73.06
2022-09-01T00:29:11.827Z,73.22
2022-09-01T00:30:11.808Z,72.85
2022-09-01T00:31:11.927Z,73.19
2022-09-01T00:32:11.823Z,74.10
2022-09-01T00:33:11.827Z,74.62
2022-09-01T00:34:11.810Z,74.82
2022-09-01T00:35:11.787Z,74.17
2022-09-01T00:36:11.763Z,73.50
2022-09-01T00:37:11.838Z,73.90
2022-09-01T00:38:11.821Z,73.19
2022-09-01T00:39:11.775Z,73.50
2022-09-01T00:40:11.779Z,74.75
2022-09-01T00:41:11.744Z,74.44
2022-09-01T00:42:11.738Z,73.94
2022-09-01T00:43:11.730Z,74.65
2022-09-01T00:44:11.720Z,74.55
2022-09-01T00:45:11.742Z,74.04
2022-09-01T00:46:11.743Z,74.04
2022-09-01T00:47:11.718Z,74.04
2022-09-01T00:48:11.737Z,73.33
2022-09-01T00:49:11.687Z,72.78
2022-09-01T00:50:11.666Z,72.78
2022-09-01T00:51:11.694Z,72.69
2022-09-01T00:52:11.680Z,73.19
2022-09-01T00:53:11.686Z,72.65
2022-09-01T00:54:11.647Z,72.48
2022-09-01T00:55:11.682Z,72.65
2022-09-01T00:56:11.639Z,71.13
2022-09-01T00:57:11.654Z,71.44
2022-09-01T00:58:19.684Z,71.50
2022-09-01T00:59:12.618Z,71.40
2022-09-01T01:00:11.704Z,71.16
2022-09-01T01:01:11.705Z,71.20
2022-09-01T01:02:11.691Z,71.20
2022-09-01T01:03:12.607Z,70.45
2022-09-01T01:04:11.569Z,70.25
2022-09-01T01:05:14.351Z,70.45
2022-09-01T01:06:11.563Z,70.45
2022-09-01T01:07:11.550Z,70.15
2022-09-01T01:08:11.665Z,70.56
2022-09-01T01:09:11.534Z,71.23
2022-09-01T01:10:11.554Z,71.73
2022-09-01T01:11:11.521Z,71.57
2022-09-01T01:12:11.558Z,72.08
2022-09-01T01:13:11.530Z,72.45
2022-09-01T01:14:11.504Z,72.48
2022-09-01T01:15:11.509Z,72.89
2022-09-01T01:16:11.594Z,73.33
2022-09-01T01:17:11.507Z,73.13
2022-09-01T01:18:11.479Z,73.02
2022-09-01T01:19:11.509Z,73.29
2022-09-01T01:20:11.475Z,72.89
2022-09-01T01:21:11.462Z,72.62
2022-09-01T01:22:11.494Z,72.96
2022-09-01T01:23:11.451Z,73.57
2022-09-01T01:24:11.456Z,73.36
2022-09-01T01:25:11.430Z,73.77
2022-09-01T01:26:11.454Z,74.07
2022-09-01T01:27:11.421Z,73.26
2022-09-01T01:28:11.496Z,72.92
2022-09-01T01:29:11.420Z,72.92
2022-09-01T01:30:11.406Z,73.06
2022-09-01T01:31:11.433Z,73.06
2022-09-01T01:32:11.434Z,72.85
2022-09-01T01:33:12.422Z,73.67
2022-09-01T01:34:11.409Z,73.50
2022-09-01T01:35:11.362Z,73.39
2022-09-01T01:36:11.370Z,73.36
2022-09-01T01:37:11.358Z,73.60
2022-09-01T01:38:11.356Z,74.01
2022-09-01T01:39:11.332Z,74.31
2022-09-01T01:40:11.344Z,74.76
2022-09-01T01:41:11.353Z,74.55
2022-09-01T01:42:11.341Z,74.15
2022-09-01T01:43:11.306Z,74.21
2022-09-01T01:44:11.331Z,74.24
2022-09-01T01:45:11.281Z,74.76
2022-09-01T01:46:11.384Z,74.11
2022-09-01T01:47:11.270Z,73.91
2022-09-01T01:48:11.292Z,73.80
2022-09-01T01:49:11.257Z,73.50
2022-09-01T01:50:11.302Z,73.39
2022-09-01T01:51:11.242Z,73.39
2022-09-01T01:52:11.245Z,73.80
2022-09-01T01:53:11.771Z,73.39
2022-09-01T01:54:11.217Z,73.19
2022-09-01T01:55:11.217Z,73.19
2022-09-01T01:56:11.205Z,73.19
2022-09-01T01:57:11.245Z,73.30
2022-09-01T01:58:11.236Z,73.70
2022-09-01T01:59:11.226Z,73.19
2022-09-01T02:00:11.174Z,72.69
2022-09-01T02:01:11.255Z,72.89
2022-09-01T02:02:11.212Z,72.65
2022-09-01T02:03:11.161Z,73.09
2022-09-01T02:04:11.179Z,73.63
2022-09-01T02:05:11.142Z,74.24
2022-09-01T02:06:11.158Z,74.69
2022-09-01T02:07:11.125Z,75.20
2022-09-01T02:08:11.128Z,74.69
2022-09-01T02:09:11.144Z,74.55
2022-09-01T02:10:11.105Z,74.24
2022-09-01T02:11:11.109Z,73.54
2022-09-01T02:12:11.097Z,74.85
2022-09-01T02:13:11.103Z,74.79
2022-09-01T02:14:11.089Z,74.79
2022-09-01T02:15:11.097Z,75.09
2022-09-01T02:16:11.082Z,75.40
2022-09-01T02:17:11.101Z,74.48
2022-09-01T02:18:11.060Z,75.30
2022-09-01T02:19:11.081Z,74.69
2022-09-01T02:20:11.037Z,74.76
2022-09-01T02:21:15.135Z,74.15
2022-09-01T02:22:13.021Z,74.24
2022-09-01T02:23:11.014Z,74.99
2022-09-01T02:24:11.077Z,74.99
2022-09-01T02:25:11.001Z,75.23
2022-09-01T02:26:18.265Z,75.43
2022-09-01T02:27:12.993Z,75.84
2022-09-01T02:28:10.977Z,75.95
2022-09-01T02:29:10.969Z,76.08
2022-09-01T02:30:10.981Z,77.10
2022-09-01T02:31:11.008Z,76.79
2022-09-01T02:32:10.971Z,76.69
2022-09-01T02:33:10.949Z,76.49
2022-09-01T02:34:10.993Z,75.95
2022-09-01T02:35:10.961Z,75.57
2022-09-01T02:36:10.916Z,76.15
2022-09-01T02:37:10.964Z,76.45
2022-09-01T02:38:10.905Z,75.74
2022-09-01T02:39:10.929Z,75.54
2022-09-01T02:40:10.960Z,75.09
2022-09-01T02:41:10.942Z,74.93
2022-09-01T02:42:10.873Z,75.43
2022-09-01T02:43:10.861Z,76.39
2022-09-01T02:44:10.900Z,76.12
2022-09-01T02:45:10.856Z,76.42
2022-09-01T02:46:11.004Z,77.03
2022-09-01T02:47:10.850Z,77.03
2022-09-01T02:48:10.833Z,77.14
2022-09-01T02:49:10.845Z,76.83
2022-09-01T02:50:10.821Z,76.79
2022-09-01T02:51:10.816Z,77.03
2022-09-01T02:52:10.813Z,76.53
2022-09-01T02:53:10.824Z,76.62
2022-09-01T02:54:10.793Z,76.87
2022-09-01T02:55:10.801Z,77.68
2022-09-01T02:56:10.833Z,77.48
2022-09-01T02:57:10.821Z,78.09
2022-09-01T02:58:10.761Z,77.78
2022-09-01T02:59:10.792Z,78.12
2022-09-01T03:00:10.753Z,78.84
2022-09-01T03:01:10.811Z,78.84
2022-09-01T03:02:10.738Z,78.60
2022-09-01T03:03:10.741Z,78.19
2022-09-01T03:04:10.736Z,78.30
2022-09-01T03:05:10.787Z,77.89
2022-09-01T03:06:10.732Z,77.17
2022-09-01T03:07:10.704Z,77.37
2022-09-01T03:08:10.717Z,77.31
2022-09-01T03:09:11.320Z,78.23
2022-09-01T03:10:10.685Z,78.33
2022-09-01T03:11:13.058Z,78.43
2022-09-01T03:12:11.678Z,78.12
2022-09-01T03:13:10.660Z,77.58
2022-09-01T03:14:10.692Z,77.37
2022-09-01T03:15:10.653Z,77.82
2022-09-01T03:16:10.700Z,78.33
2022-09-01T03:17:10.644Z,78.33
2022-09-01T03:18:10.641Z,77.89
2022-09-01T03:19:10.712Z,77.37
2022-09-01T03:20:10.623Z,77.37
2022-09-01T03:21:10.614Z,77.03
2022-09-01T03:22:10.654Z,76.22
2022-09-01T03:23:10.640Z,76.42
2022-09-01T03:24:10.614Z,76.22
2022-09-01T03:25:10.600Z,76.22
2022-09-01T03:26:10.584Z,76.01
2022-09-01T03:27:10.601Z,75.57
2022-09-01T03:28:10.588Z,75.47
2022-09-01T03:29:10.612Z,75.27
2022-09-01T03:30:10.569Z,76.01
2022-09-01T03:31:10.580Z,75.88
2022-09-01T03:32:10.624Z,76.01
2022-09-01T03:33:10.632Z,76.32
2022-09-01T03:34:10.557Z,76.42
2022-09-01T03:35:10.528Z,76.73
2022-09-01T03:36:14.703Z,75.98
2022-09-01T03:37:10.541Z,76.49
2022-09-01T03:38:10.521Z,76.73
2022-09-01T03:39:13.403Z,76.32
2022-09-01T03:40:12.538Z,76.01
2022-09-01T03:41:10.538Z,75.98
2022-09-01T03:42:10.510Z,75.78
2022-09-01T03:43:10.509Z,75.81
2022-09-01T03:44:10.508Z,76.42
2022-09-01T03:45:10.471Z,77.58
2022-09-01T03:46:10.515Z,77.98
2022-09-01T03:47:10.462Z,78.84
2022-09-01T03:48:10.491Z,78.39
2022-09-01T03:49:10.454Z,78.30
2022-09-01T03:50:10.520Z,78.19
2022-09-01T03:51:10.442Z,78.09
2022-09-01T03:52:10.435Z,77.98
2022-09-01T03:53:10.444Z,78.12
2022-09-01T03:54:10.423Z,78.43
2022-09-01T03:55:10.438Z,78.84
2022-09-01T03:56:10.418Z,78.53
2022-09-01T03:57:10.394Z,78.30
2022-09-01T03:58:10.410Z,78.12
2022-09-01T03:59:10.400Z,78.84
2022-09-01T04:00:10.418Z,78.84
2022-09-01T04:01:13.775Z,78.84
2022-09-01T04:02:10.421Z,78.94
2022-09-01T04:03:10.367Z,78.64
2022-09-01T04:04:10.360Z,78.53
2022-09-01T04:05:10.373Z,78.74
2022-09-01T04:06:10.374Z,78.74
2022-09-01T04:07:10.364Z,78.30
2022-09-01T04:08:11.353Z,78.64
2022-09-01T04:09:10.352Z,78.64
2022-09-01T04:10:10.336Z,78.74
2022-09-01T04:11:10.370Z,78.27
2022-09-01T04:12:10.318Z,78.98
2022-09-01T04:13:10.353Z,79.45
2022-09-01T04:14:10.351Z,78.74
2022-09-01T04:15:10.305Z,78.77
2022-09-01T04:16:10.447Z,79.59
2022-09-01T04:17:10.300Z,79.59
2022-09-01T04:18:10.279Z,79.80
2022-09-01T04:19:10.279Z,79.49
2022-09-01T04:20:10.273Z,79.69
2022-09-01T04:21:10.255Z,80.14
2022-09-01T04:22:10.338Z,80.20
2022-09-01T04:23:10.256Z,80.65
2022-09-01T04:24:10.236Z,79.93
2022-09-01T04:25:10.241Z,80.34
2022-09-01T04:26:10.237Z,80.34
2022-09-01T04:27:10.247Z,80.24
2022-09-01T04:28:10.208Z,80.69
2022-09-01T04:29:10.248Z,80.58
2022-09-01T04:30:10.212Z,80.34
2022-09-01T04:31:10.187Z,80.44
2022-09-01T04:32:10.232Z,80.24
2022-09-01T04:33:10.185Z,79.39
2022-09-01T04:34:10.180Z,78.98
2022-09-01T04:35:10.201Z,78.84
2022-09-01T04:36:10.160Z,78.23
2022-09-01T04:37:10.181Z,77.82
2022-09-01T04:38:10.172Z,77.82
2022-09-01T04:39:10.148Z,77.21
2022-09-01T04:40:10.186Z,77.62
2022-09-01T04:41:10.120Z,77.41
2022-09-01T04:42:10.129Z,77.58
2022-09-01T04:43:10.137Z,76.46
2022-09-01T04:44:10.177Z,76.12
2022-09-01T04:45:11.083Z,76.12
2022-09-01T04:46:10.142Z,76.22
2022-09-01T04:47:10.092Z,75.47
2022-09-01T04:48:10.092Z,75.06
2022-09-01T04:49:10.288Z,74.76
2022-09-01T04:50:10.077Z,75.37
2022-09-01T04:51:10.131Z,74.25
2022-09-01T04:52:10.060Z,75.27
2022-09-01T04:53:10.132Z,75.27
2022-09-01T04:54:10.069Z,74.65
2022-09-01T04:55:10.058Z,74.69
2022-09-01T04:56:10.101Z,76.01
2022-09-01T04:57:10.029Z,76.05
2022-09-01T04:58:10.417Z,77.11
2022-09-01T04:59:11.042Z,77.41
2022-09-01T05:00:10.026Z,78.27
2022-09-01T05:01:10.076Z,78.37
2022-09-01T05:02:10.042Z,78.47
2022-09-01T05:03:10.043Z,78.33
2022-09-01T05:04:10.041Z,78.47
2022-09-01T05:05:09.981Z,78.23
2022-09-01T05:06:09.974Z,78.12
2022-09-01T05:07:09.974Z,77.98
2022-09-01T05:08:10.009Z,77.27
2022-09-01T05:09:09.993Z,77.07
2022-09-01T05:10:09.957Z,76.62
2022-09-01T05:11:09.999Z,75.92
2022-09-01T05:12:09.937Z,75.37
2022-09-01T05:13:10.949Z,75.02
2022-09-01T05:14:09.983Z,74.41
2022-09-01T05:15:09.914Z,74.21
2022-09-01T05:16:09.992Z,73.77
2022-09-01T05:17:09.914Z,72.96
2022-09-01T05:18:09.944Z,72.86
2022-09-01T05:19:09.969Z,72.82
2022-09-01T05:20:09.985Z,72.72
2022-09-01T05:21:09.991Z,71.36
2022-09-01T05:22:09.942Z,71.50
2022-09-01T05:23:10.283Z,72.21
2022-09-01T05:24:10.858Z,72.28
2022-09-01T05:25:09.889Z,72.92
2022-09-01T05:26:09.848Z,72.48
2022-09-01T05:27:09.825Z,71.57
2022-09-01T05:28:10.844Z,72.72
2022-09-01T05:29:09.857Z,72.69
2022-09-01T05:30:09.821Z,72.58
2022-09-01T05:31:09.874Z,71.47
2022-09-01T05:32:09.800Z,71.67
2022-09-01T05:33:09.813Z,71.73
2022-09-01T05:34:10.263Z,71.73
2022-09-01T05:35:09.798Z,71.53
2022-09-01T05:36:09.782Z,71.60
2022-09-01T05:37:09.847Z,71.40
2022-09-01T05:38:09.804Z,71.40
2022-09-01T05:39:09.855Z,71.36
2022-09-01T05:40:09.880Z,70.96
2022-09-01T05:41:09.762Z,71.13
2022-09-01T05:42:09.837Z,70.11
2022-09-01T05:43:09.827Z,71.64
2022-09-01T05:44:09.733Z,72.69
2022-09-01T05:45:09.711Z,74.01
2022-09-01T05:46:09.723Z,75.32
2022-09-01T05:47:09.721Z,75.02
2022-09-01T05:48:11.286Z,75.36
2022-09-01T05:49:09.706Z,75.93
2022-09-01T05:50:13.644Z,75.52
2022-09-01T05:51:27.358Z,76.03
2022-09-01T05:52:11.694Z,76.64
2022-09-01T05:53:12.840Z,76.14
2022-09-01T05:54:09.681Z,75.93
2022-09-01T05:55:09.700Z,75.22
2022-09-01T05:56:09.650Z,74.98
2022-09-01T05:57:32.804Z,74.54
2022-09-01T05:58:11.710Z,73.43
2022-09-01T05:59:26.019Z,73.46
2022-09-01T06:00:11.624Z,73.43
2022-09-01T06:01:09.628Z,74.07
2022-09-01T06:02:09.714Z,73.36
2022-09-01T06:03:09.738Z,72.96
2022-09-01T06:04:10.592Z,72.92
2022-09-01T06:05:09.579Z,72.52
2022-09-01T06:06:09.563Z,72.92
2022-09-01T06:07:11.836Z,72.58
2022-09-01T06:08:11.554Z,72.58
2022-09-01T06:09:09.575Z,71.64
2022-09-01T06:10:09.544Z,71.33
2022-09-01T06:11:09.533Z,71.20
2022-09-01T06:12:09.534Z,71.53
2022-09-01T06:13:09.507Z,70.96
2022-09-01T06:14:09.501Z,69.74
2022-09-01T06:15:09.526Z,69.41
2022-09-01T06:16:09.528Z,68.90
2022-09-01T06:17:09.502Z,68.47
2022-09-01T06:18:09.546Z,68.26
2022-09-01T06:19:09.470Z,68.16
2022-09-01T06:20:09.485Z,68.80
2022-09-01T06:21:09.478Z,68.70
2022-09-01T06:22:09.451Z,68.60
2022-09-01T06:23:09.456Z,68.37
2022-09-01T06:24:09.466Z,68.30
2022-09-01T06:25:09.445Z,68.10
2022-09-01T06:26:09.454Z,68.16
2022-09-01T06:27:09.458Z,67.86
2022-09-01T06:28:09.735Z,68.37
2022-09-01T06:29:09.414Z,67.83
2022-09-01T06:30:09.415Z,67.29
2022-09-01T06:31:09.578Z,66.89
2022-09-01T06:32:09.387Z,66.38
2022-09-01T06:33:09.427Z,66.75
2022-09-01T06:34:09.408Z,66.12
2022-09-01T06:35:09.387Z,65.14
2022-09-01T06:36:09.356Z,66.15
2022-09-01T06:37:09.364Z,65.58
2022-09-01T06:38:09.358Z,65.11
2022-09-01T06:39:09.373Z,64.37
2022-09-01T06:40:09.413Z,65.11
2022-09-01T06:41:09.581Z,64.98
2022-09-01T06:42:09.334Z,64.58
2022-09-01T06:43:09.342Z,63.73
2022-09-01T06:44:14.322Z,64.14
2022-09-01T06:45:11.299Z,63.03
2022-09-01T06:46:09.358Z,63.67
2022-09-01T06:47:09.324Z,63.53
2022-09-01T06:48:09.299Z,63.10
2022-09-01T06:49:09.338Z,61.79
2022-09-01T06:50:09.275Z,61.25
2022-09-01T06:51:18.335Z,61.23
2022-09-01T06:52:11.278Z,60.63
2022-09-01T06:54:14.611Z,60.52
2022-09-01T06:55:10.233Z,61.16
2022-09-01T06:56:09.250Z,60.49
2022-09-01T06:58:13.931Z,59.69
2022-09-01T06:59:09.222Z,58.55
2022-09-01T07:00:09.237Z,59.19
2022-09-01T07:01:09.222Z,60.09
2022-09-01T07:02:13.946Z,59.76
2022-09-01T07:03:11.183Z,59.89
2022-09-01T07:04:12.839Z,59.66
2022-09-01T07:05:59.707Z,58.65
2022-09-01T07:06:58.706Z,58.93
2022-09-01T07:08:11.147Z,58.53
2022-09-01T07:09:38.641Z,58.73
2022-09-01T07:10:21.185Z,58.83
2022-09-01T07:12:26.781Z,58.29
2022-09-01T07:13:11.141Z,58.00
2022-09-01T07:14:16.216Z,58.40
2022-09-01T07:17:26.362Z,57.97
2022-09-01T07:18:11.125Z,58.40
2022-09-01T07:19:09.085Z,57.77
2022-09-01T07:20:25.875Z,57.57
2022-09-01T07:21:38.820Z,57.77
2022-09-01T07:22:35.298Z,57.37
2022-09-01T07:23:10.077Z,57.46
2022-09-01T07:24:10.479Z,57.46
2022-09-01T07:25:12.123Z,57.59
2022-09-01T07:26:10.072Z,57.50
2022-09-01T07:27:09.267Z,57.37
2022-09-01T07:28:09.021Z,56.01
2022-09-01T07:29:09.068Z,55.43
2022-09-01T07:30:09.036Z,53.74
2022-09-01T07:34:40.139Z,51.04
2022-09-01T07:36:25.815Z,47.14
2022-09-01T07:38:47.244Z,44.71
2022-09-01T07:43:10.915Z,40.94
2022-09-01T07:44:08.903Z,40.56
2022-09-01T07:48:10.919Z,38.23
2022-09-01T07:50:25.411Z,37.92
2022-09-01T07:52:10.867Z,38.33
2022-09-01T07:53:08.859Z,37.11
2022-09-01T07:54:08.849Z,37.66
2022-09-01T07:55:08.841Z,39.29
2022-09-01T07:56:08.837Z,39.40
2022-09-01T07:57:08.829Z,40.94
2022-09-01T07:58:08.854Z,41.16
2022-09-01T07:59:08.848Z,40.26
2022-09-01T08:00:08.801Z,39.10
2022-09-01T08:01:08.825Z,39.89
2022-09-01T08:02:08.829Z,38.75
2022-09-01T08:03:08.825Z,38.94
2022-09-01T08:04:08.778Z,37.58
2022-09-01T08:05:08.774Z,38.86
2022-09-01T08:06:08.803Z,38.68
2022-09-01T08:07:08.746Z,38.45
2022-09-01T08:08:28.670Z,36.80
2022-09-01T08:09:11.628Z,36.14
2022-09-01T08:10:08.729Z,38.76
2022-09-01T08:11:09.753Z,37.85
2022-09-01T08:12:08.755Z,38.06
2022-09-01T08:13:15.350Z,38.43
2022-09-01T08:14:10.445Z,37.87
2022-09-01T08:16:18.444Z,37.03
2022-09-01T08:17:18.121Z,36.22
2022-09-01T08:18:14.178Z,36.19
2022-09-01T08:19:16.633Z,36.44
2022-09-01T08:20:14.107Z,37.74
2022-09-01T08:21:08.651Z,37.39
2022-09-01T08:22:08.803Z,34.66
2022-09-01T08:23:08.699Z,35.36
2022-09-01T08:24:08.690Z,33.86
2022-09-01T08:25:08.839Z,34.46
2022-09-01T08:26:08.635Z,34.23
2022-09-01T08:27:08.700Z,33.56
2022-09-01T08:28:08.654Z,33.86
2022-09-01T08:29:08.626Z,34.74
2022-09-01T08:30:52.493Z,34.36
2022-09-01T08:31:11.179Z,35.38
2022-09-01T08:32:09.654Z,35.48
2022-09-01T08:33:11.650Z,34.95
2022-09-01T08:34:09.621Z,33.65
2022-09-01T08:35:09.390Z,34.70
2022-09-01T08:36:08.588Z,35.88
2022-09-01T08:37:08.593Z,33.77
2022-09-01T08:38:08.626Z,33.84
2022-09-01T08:39:08.559Z,33.74
2022-09-01T08:40:08.586Z,34.87
2022-09-01T08:41:08.541Z,35.38
2022-09-01T08:42:08.648Z,35.79
2022-09-01T08:43:13.200Z,36.09
2022-09-01T08:44:09.542Z,35.89
2022-09-01T08:45:08.538Z,36.42
2022-09-01T08:46:08.558Z,36.30
2022-09-01T08:47:13.618Z,35.40
2022-09-01T08:49:02.697Z,35.71
2022-09-01T08:49:24.656Z,35.44
2022-09-01T08:50:10.490Z,34.36
2022-09-01T08:51:14.108Z,33.80
2022-09-01T08:52:10.477Z,33.03
2022-09-01T08:53:09.717Z,33.13
2022-09-01T08:54:09.491Z,33.23
2022-09-01T08:55:08.442Z,32.61
2022-09-01T08:56:08.593Z,32.28
2022-09-01T08:57:08.431Z,30.46
2022-09-01T08:58:09.788Z,30.98
2022-09-01T08:59:08.465Z,32.38
2022-09-01T09:00:08.420Z,32.64
2022-09-01T09:01:08.514Z,32.92
2022-09-01T09:02:09.336Z,31.70
2022-09-01T09:03:08.816Z,30.93
2022-09-01T09:04:08.404Z,28.92
2022-09-01T09:05:15.919Z,28.55
2022-09-01T09:06:10.400Z,28.96
2022-09-01T09:07:08.381Z,28.64
2022-09-01T09:08:08.368Z,29.18
2022-09-01T09:09:08.375Z,30.22
2022-09-01T09:10:08.376Z,31.04
2022-09-01T09:11:08.384Z,30.50
2022-09-01T09:12:08.704Z,29.50
2022-09-01T09:13:10.224Z,30.27
2022-09-01T09:14:08.369Z,30.80
2022-09-01T09:15:08.376Z,31.32
2022-09-01T09:16:08.853Z,31.40
2022-09-01T09:17:09.364Z,31.01
2022-09-01T09:18:20.268Z,32.02
2022-09-01T09:19:09.328Z,32.76
2022-09-01T09:20:09.279Z,33.46
2022-09-01T09:21:08.333Z,31.51
2022-09-01T09:22:08.359Z,30.22
2022-09-01T09:23:08.521Z,28.63
2022-09-01T09:24:08.343Z,29.10
2022-09-01T09:25:08.372Z,27.70
2022-09-01T09:26:08.431Z,27.91
2022-09-01T09:27:09.725Z,27.31
2022-09-01T09:28:08.286Z,27.49
2022-09-01T09:29:08.275Z,27.33
2022-09-01T09:30:11.178Z,26.72
2022-09-01T09:31:09.308Z,28.89
2022-09-01T09:32:22.486Z,29.83
2022-09-01T09:33:44.293Z,29.19
2022-09-01T09:34:10.835Z,29.02
2022-09-01T09:35:08.260Z,27.20
2022-09-01T09:36:08.245Z,26.61
2022-09-01T09:37:08.236Z,28.74
2022-09-01T09:38:08.358Z,30.71
2022-09-01T09:39:08.243Z,31.62
2022-09-01T09:40:10.072Z,30.27
2022-09-01T09:41:18.816Z,28.41
2022-09-01T09:42:10.249Z,27.27
2022-09-01T09:43:08.211Z,26.48
2022-09-01T09:44:11.280Z,26.88
2022-09-01T09:45:09.917Z,26.06
2022-09-01T09:46:23.414Z,26.03
2022-09-01T09:47:27.287Z,27.20
2022-09-01T09:48:10.989Z,29.45
2022-09-01T09:49:08.160Z,28.79
2022-09-01T09:50:08.150Z,26.98
2022-09-01T09:51:08.198Z,27.38
2022-09-01T09:52:08.206Z,28.55
2022-09-01T09:53:08.142Z,30.41
2022-09-01T09:54:08.119Z,32.64
2022-09-01T09:55:09.122Z,32.57
2022-09-01T09:56:08.134Z,33.11
2022-09-01T09:57:08.137Z,33.03
2022-09-01T09:58:08.106Z,30.77
2022-09-01T09:59:08.101Z,29.02
2022-09-01T10:00:08.101Z,27.83
2022-09-01T10:01:08.165Z,28.41
2022-09-01T10:02:08.118Z,26.32
2022-09-01T10:03:10.227Z,26.81
2022-09-01T10:04:08.294Z,26.28
2022-09-01T10:05:08.075Z,26.01
2022-09-01T10:06:08.070Z,26.18
2022-09-01T10:07:08.065Z,26.15
2022-09-01T10:08:08.048Z,26.09
2022-09-01T10:09:08.104Z,26.51
2022-09-01T10:10:09.037Z,27.73
2022-09-01T10:11:08.287Z,28.64
2022-09-01T10:12:08.711Z,29.57
2022-09-01T10:13:08.006Z,30.49
2022-09-01T10:14:08.055Z,30.05
2022-09-01T10:15:12.735Z,30.80
2022-09-01T10:16:09.418Z,31.01
2022-09-01T10:17:09.108Z,31.04
2022-09-01T10:18:28.991Z,31.83
2022-09-01T10:19:12.585Z,32.49
2022-09-01T10:20:07.986Z,32.78
2022-09-01T10:21:07.961Z,33.21
2022-09-01T10:22:08.036Z,33.92
2022-09-01T10:23:14.867Z,34.81
2022-09-01T10:24:26.993Z,34.53
2022-09-01T10:25:10.838Z,34.73
2022-09-01T10:26:09.552Z,35.04
2022-09-01T10:27:14.296Z,35.95
2022-09-01T10:28:09.983Z,36.15
2022-09-01T10:29:08.402Z,35.86
2022-09-01T10:30:19.162Z,36.16
2022-09-01T10:31:09.972Z,36.48
2022-09-01T10:32:31.396Z,35.06
2022-09-01T10:33:19.286Z,34.58
2022-09-01T10:34:09.899Z,35.37
2022-09-01T10:35:07.906Z,32.88
2022-09-01T10:36:08.032Z,32.06
2022-09-01T10:37:10.546Z,31.96
2022-09-01T10:38:08.881Z,32.07
2022-09-01T10:39:09.173Z,32.29
2022-09-01T10:40:08.937Z,29.83
2022-09-01T10:41:08.842Z,31.37
2022-09-01T10:42:08.844Z,32.19
2022-09-01T10:43:12.434Z,31.70
2022-09-01T10:44:07.847Z,33.61
2022-09-01T10:45:07.863Z,32.71
2022-09-01T10:46:09.141Z,33.04
2022-09-01T10:47:13.594Z,32.47
2022-09-01T10:48:13.037Z,28.70
2022-09-01T10:49:08.240Z,29.92
2022-09-01T10:50:10.017Z,31.09
2022-09-01T10:51:08.828Z,31.81
2022-09-01T10:52:13.239Z,32.90
2022-09-01T10:53:09.803Z,32.90
2022-09-01T10:54:08.349Z,32.34
2022-09-01T10:55:07.817Z,33.33
2022-09-01T10:56:18.774Z,33.64
2022-09-01T10:57:12.287Z,33.23
2022-09-01T10:59:29.891Z,33.03
2022-09-01T11:00:34.754Z,33.73
2022-09-01T11:01:11.195Z,33.70
2022-09-01T11:02:27.558Z,31.79
2022-09-01T11:04:10.326Z,32.95
2022-09-01T11:05:07.744Z,30.55
2022-09-01T11:06:14.881Z,28.97
2022-09-01T11:07:12.881Z,28.53
2022-09-01T11:08:15.826Z,25.73
2022-09-01T11:09:09.713Z,25.79
2022-09-01T11:10:11.377Z,25.68
2022-09-01T11:11:09.699Z,26.04
2022-09-01T11:12:07.689Z,27.15
2022-09-01T11:13:07.658Z,27.50
2022-09-01T11:14:09.420Z,29.24
2022-09-01T11:15:07.662Z,30.19
2022-09-01T11:16:07.701Z,30.73
2022-09-01T11:17:07.801Z,31.02
2022-09-01T11:18:08.478Z,30.51
2022-09-01T11:19:14.015Z,31.62
2022-09-01T11:20:09.617Z,28.86
2022-09-01T11:21:08.605Z,28.85
2022-09-01T11:22:07.604Z,29.19
2022-09-01T11:23:07.592Z,29.39
2022-09-01T11:24:07.667Z,29.17
2022-09-01T11:25:12.134Z,29.34
2022-09-01T11:26:23.951Z,27.18
2022-09-01T11:27:09.593Z,25.48
2022-09-01T11:28:07.557Z,25.26
2022-09-01T11:29:07.566Z,23.86
2022-09-01T11:30:08.450Z,23.83
2022-09-01T11:31:09.044Z,22.73
2022-09-01T11:32:07.661Z,22.49
2022-09-01T11:33:07.641Z,22.69
2022-09-01T11:34:07.540Z,22.90
2022-09-01T11:35:07.564Z,23.18
2022-09-01T11:36:07.557Z,22.42
2022-09-01T11:37:07.739Z,22.81
2022-09-01T11:38:07.550Z,23.29
2022-09-01T11:39:07.503Z,22.52
2022-09-01T11:40:07.584Z,22.50
2022-09-01T11:41:07.523Z,22.96
2022-09-01T11:42:08.464Z,23.12
2022-09-01T11:43:09.729Z,23.21
2022-09-01T11:44:08.478Z,25.28
2022-09-01T11:45:07.478Z,26.10
2022-09-01T11:46:07.500Z,26.73
2022-09-01T11:47:12.008Z,25.59
2022-09-01T11:48:09.442Z,25.89
2022-09-01T11:49:07.435Z,25.90
2022-09-01T11:50:07.440Z,25.29
2022-09-01T11:51:07.444Z,24.36
2022-09-01T11:52:08.452Z,24.14
2022-09-01T11:53:07.452Z,23.32
2022-09-01T11:54:07.452Z,22.49
2022-09-01T11:55:07.416Z,22.89
2022-09-01T11:56:08.429Z,23.32
2022-09-01T11:57:07.431Z,25.77
2022-09-01T11:58:07.403Z,26.62
2022-09-01T11:59:07.404Z,28.64
2022-09-01T12:00:07.418Z,28.88
2022-09-01T12:01:07.444Z,29.11
2022-09-01T12:02:07.434Z,30.41
2022-09-01T12:03:07.480Z,30.30
2022-09-01T12:04:07.429Z,29.92
2022-09-01T12:05:07.341Z,31.02
2022-09-01T12:06:08.799Z,31.22
2022-09-01T12:07:08.040Z,30.82
2022-09-01T12:08:07.348Z,31.10
2022-09-01T12:09:07.339Z,30.41
2022-09-01T12:10:07.332Z,29.88
2022-09-01T12:11:07.331Z,29.33
2022-09-01T12:12:07.305Z,26.20
2022-09-01T12:13:07.320Z,26.26
2022-09-01T12:14:11.133Z,26.26
2022-09-01T12:15:08.330Z,26.69
2022-09-01T12:16:18.499Z,27.72
2022-09-01T12:17:09.358Z,29.05
2022-09-01T12:18:07.308Z,29.19
2022-09-01T12:19:07.279Z,29.51
2022-09-01T12:20:07.319Z,28.78
2022-09-01T12:21:07.273Z,26.14
2022-09-01T12:22:07.262Z,26.46
2022-09-01T12:23:07.283Z,24.63
2022-09-01T12:24:07.248Z,23.93
2022-09-01T12:25:07.250Z,24.05
2022-09-01T12:26:07.243Z,23.96
2022-09-01T12:27:07.235Z,23.82
2022-09-01T12:28:07.218Z,24.00
2022-09-01T12:29:07.210Z,23.69
2022-09-01T12:30:07.228Z,23.12
2022-09-01T12:31:07.399Z,24.02
2022-09-01T12:32:07.269Z,24.90
2022-09-01T12:34:09.175Z,24.19
2022-09-01T12:35:11.287Z,22.48
2022-09-01T12:36:08.169Z,23.04
2022-09-01T12:37:07.169Z,21.88
2022-09-01T12:38:09.643Z,21.96
2022-09-01T12:39:08.169Z,22.66
2022-09-01T12:40:07.765Z,23.61
2022-09-01T12:41:07.587Z,24.52
2022-09-01T12:42:07.169Z,26.28
2022-09-01T12:43:07.897Z,26.93
2022-09-01T12:44:07.114Z,27.86
2022-09-01T12:45:09.066Z,27.48
2022-09-01T12:46:07.134Z,28.36
2022-09-01T12:47:07.153Z,27.25
2022-09-01T12:48:07.142Z,26.31
2022-09-01T12:49:07.154Z,26.48
2022-09-01T12:50:07.093Z,26.46
2022-09-01T12:51:09.287Z,25.67
2022-09-01T12:52:07.068Z,24.36
2022-09-01T12:53:08.430Z,24.10
2022-09-01T12:54:09.445Z,24.09
2022-09-01T12:55:07.072Z,23.16
2022-09-01T12:56:07.036Z,21.77
2022-09-01T12:57:07.073Z,22.06
2022-09-01T12:58:07.029Z,22.07
2022-09-01T12:59:09.603Z,22.91
2022-09-01T13:00:09.012Z,23.69
2022-09-01T13:01:08.766Z,22.48
2022-09-01T13:02:08.451Z,23.14
2022-09-01T13:03:08.278Z,23.85
2022-09-01T13:04:07.073Z,23.44
2022-09-01T13:05:07.039Z,22.75
2022-09-01T13:06:08.004Z,22.92
2022-09-01T13:07:07.625Z,22.94
2022-09-01T13:08:07.666Z,22.55
2022-09-01T13:09:06.956Z,22.24
2022-09-01T13:10:07.512Z,22.83
2022-09-01T13:11:06.975Z,22.67
2022-09-01T13:12:07.636Z,23.69
2022-09-01T13:13:06.980Z,24.97
2022-09-01T13:14:06.925Z,22.99
2022-09-01T13:15:07.927Z,22.86
2022-09-01T13:16:06.977Z,23.39